Time;durP1;ratioP1;P1;durP2;ratioP2;P2;SDS_P1;SDS_P2;PMS_P1;PMS_P2;Temp;Humidity;BMP_temperature;BMP_pressure;BME280_temperature;BME280_humidity;BME280_pressure;Samples;Min_cycle;Max_cycle;Signal;HPM_P1;HPM_P2
2023/10/22 00:00:47;;;;;;;2.05;0.60;;;;;;;;;;5054064;28;20040;-83
2023/10/22 00:03:12;;;;;;;2.75;0.40;;;;;;;;;;5053470;28;20025;-83
2023/10/22 00:05:37;;;;;;;2.15;0.52;;;;;;;;;;5071918;28;20021;-83
2023/10/22 00:08:03;;;;;;;3.75;0.60;;;;;;;;;;5054234;28;20109;-83
2023/10/22 00:10:28;;;;;;;3.35;0.40;;;;;;;;;;5054507;28;20032;-83
2023/10/22 00:12:54;;;;;;;3.78;0.40;;;;;;;;;;5055774;28;20092;-82
2023/10/22 00:15:20;;;;;;;1.33;0.45;;;;;;;;;;5054119;28;20027;-83
2023/10/22 00:17:48;;;;;;;3.45;0.45;;;;;;;;;;5051012;28;20132;-82
2023/10/22 00:20:17;;;;;;;1.55;0.50;;;;;;;;;;5044280;28;20127;-83
2023/10/22 00:22:42;;;;;;;4.47;0.55;;;;;;;;;;5055588;28;20092;-83
2023/10/22 00:25:08;;;;;;;2.95;0.70;;;;;;;;;;5055561;28;20503;-83
2023/10/22 00:27:37;;;;;;;2.65;0.40;;;;;;;;;;5052340;28;20473;-82
2023/10/22 00:30:02;;;;;;;1.73;0.50;;;;;;;;;;5057317;28;20025;-82
2023/10/22 00:32:28;;;;;;;2.25;0.50;;;;;;;;;;5058654;28;20104;-82
2023/10/22 00:34:54;;;;;;;4.15;0.60;;;;;;;;;;5055963;28;20023;-83
2023/10/22 00:37:22;;;;;;;3.95;0.60;;;;;;;;;;5088043;28;20021;-82
2023/10/22 00:39:48;;;;;;;2.03;0.60;;;;;;;;;;5057031;28;20039;-82
2023/10/22 00:42:13;;;;;;;6.47;0.80;;;;;;;;;;5053781;28;20035;-83
2023/10/22 00:44:39;;;;;;;2.05;0.52;;;;;;;;;;5053988;28;20460;-83
2023/10/22 00:47:05;;;;;;;4.15;0.50;;;;;;;;;;5053844;28;20024;-83
2023/10/22 00:49:33;;;;;;;5.53;0.45;;;;;;;;;;5053772;28;20036;-83
2023/10/22 00:51:58;;;;;;;3.58;0.60;;;;;;;;;;5053777;28;20036;-83
2023/10/22 00:54:25;;;;;;;3.05;0.60;;;;;;;;;;5053871;28;20029;-82
2023/10/22 00:56:51;;;;;;;2.28;0.60;;;;;;;;;;5072209;28;20402;-83
2023/10/22 00:59:16;;;;;;;2.88;0.82;;;;;;;;;;5054193;28;20749;-83
2023/10/22 01:01:44;;;;;;;2.00;0.45;;;;;;;;;;5053524;28;20059;-83
2023/10/22 01:04:10;;;;;;;0.77;0.35;;;;;;;;;;5053471;28;20050;-82
2023/10/22 01:06:36;;;;;;;4.55;0.57;;;;;;;;;;5053364;28;20032;-83
2023/10/22 01:09:01;;;;;;;2.90;0.30;;;;;;;;;;5053453;28;20020;-83
2023/10/22 01:11:27;;;;;;;0.60;0.28;;;;;;;;;;5053419;28;20112;-82
2023/10/22 01:13:55;;;;;;;2.83;0.50;;;;;;;;;;5053330;28;20021;-82
2023/10/22 01:16:21;;;;;;;4.10;0.50;;;;;;;;;;5056883;28;20020;-83
2023/10/22 01:18:47;;;;;;;2.47;0.40;;;;;;;;;;5056744;28;20039;-82
2023/10/22 01:21:13;;;;;;;1.90;0.70;;;;;;;;;;5075144;28;20021;-83
2023/10/22 01:23:38;;;;;;;1.67;0.40;;;;;;;;;;5057267;28;20085;-83
2023/10/22 01:26:06;;;;;;;2.38;0.55;;;;;;;;;;5056781;28;20063;-83
2023/10/22 01:28:32;;;;;;;3.20;0.50;;;;;;;;;;5056704;28;20020;-82
2023/10/22 01:30:57;;;;;;;1.95;0.52;;;;;;;;;;5059380;28;20459;-83
2023/10/22 01:33:23;;;;;;;3.33;0.47;;;;;;;;;;5058392;28;20452;-83
2023/10/22 01:35:51;;;;;;;0.80;0.40;;;;;;;;;;5060013;28;20025;-83
2023/10/22 01:38:16;;;;;;;3.03;0.47;;;;;;;;;;5058911;28;20707;-83
2023/10/22 01:40:42;;;;;;;3.20;1.15;;;;;;;;;;5059740;28;20514;-83
2023/10/22 01:43:07;;;;;;;5.95;0.60;;;;;;;;;;5094141;28;20035;-83
2023/10/22 01:45:35;;;;;;;1.30;0.57;;;;;;;;;;5057553;28;20020;-83
2023/10/22 01:48:01;;;;;;;2.95;0.75;;;;;;;;;;5055720;28;20111;-83
2023/10/22 01:50:26;;;;;;;2.13;0.60;;;;;;;;;;5055332;28;20078;-83
2023/10/22 01:52:51;;;;;;;1.40;0.40;;;;;;;;;;5055629;28;20088;-83
2023/10/22 01:55:17;;;;;;;3.20;0.50;;;;;;;;;;5055647;28;20035;-82
2023/10/22 01:57:42;;;;;;;6.68;0.88;;;;;;;;;;5054922;28;20029;-82
2023/10/22 02:00:10;;;;;;;6.18;0.60;;;;;;;;;;5055337;28;20099;-83
2023/10/22 02:02:36;;;;;;;3.38;0.98;;;;;;;;;;5054936;28;20028;-83
2023/10/22 02:05:01;;;;;;;8.88;1.08;;;;;;;;;;5055618;28;20031;-83
2023/10/22 02:07:29;;;;;;;4.30;0.60;;;;;;;;;;5055398;28;20058;-83
2023/10/22 02:09:55;;;;;;;2.95;0.70;;;;;;;;;;5055290;28;20402;-83
2023/10/22 02:12:29;;;;;;;6.38;0.90;;;;;;;;;;5054962;28;20025;-83
2023/10/22 02:14:55;;;;;;;4.18;0.70;;;;;;;;;;5055189;28;20427;-83
2023/10/22 02:17:20;;;;;;;4.00;0.60;;;;;;;;;;5054542;28;20030;-82
2023/10/22 02:19:46;;;;;;;1.30;0.45;;;;;;;;;;5054814;28;20113;-83
2023/10/22 02:22:16;;;;;;;3.47;0.57;;;;;;;;;;5055270;28;20017;-83
2023/10/22 02:24:44;;;;;;;3.40;0.70;;;;;;;;;;5054958;28;20024;-83
2023/10/22 02:27:09;;;;;;;3.55;0.70;;;;;;;;;;5054628;28;20332;-83
2023/10/22 02:29:37;;;;;;;3.33;0.70;;;;;;;;;;5055312;28;20147;-82
2023/10/22 02:32:06;;;;;;;1.33;0.75;;;;;;;;;;5051554;28;20439;-83
2023/10/22 02:34:32;;;;;;;2.58;0.45;;;;;;;;;;5055058;28;20090;-82
2023/10/22 02:37:00;;;;;;;2.97;0.82;;;;;;;;;;5073962;28;20016;-83
2023/10/22 02:39:25;;;;;;;3.20;0.68;;;;;;;;;;5074448;28;20043;-82
2023/10/22 02:41:51;;;;;;;3.67;0.65;;;;;;;;;;5058292;28;20472;-82
2023/10/22 02:44:16;;;;;;;3.72;0.85;;;;;;;;;;5058755;28;20032;-83
2023/10/22 02:46:41;;;;;;;2.97;0.60;;;;;;;;;;5059355;28;20468;-82
2023/10/22 02:49:07;;;;;;;3.13;0.70;;;;;;;;;;5059848;28;20070;-83
2023/10/22 02:51:34;;;;;;;2.00;0.70;;;;;;;;;;5059502;28;20047;-82
2023/10/22 02:54:00;;;;;;;2.15;0.50;;;;;;;;;;5059197;28;20016;-82
2023/10/22 02:56:25;;;;;;;3.75;0.55;;;;;;;;;;5056122;28;20028;-83
2023/10/22 02:58:51;;;;;;;3.92;0.82;;;;;;;;;;5057457;28;20012;-82
2023/10/22 03:01:17;;;;;;;1.05;0.45;;;;;;;;;;5055556;28;20032;-83
2023/10/22 03:03:45;;;;;;;3.05;0.60;;;;;;;;;;5055803;28;20025;-82
2023/10/22 03:06:11;;;;;;;3.67;0.80;;;;;;;;;;5056021;28;20025;-82
2023/10/22 03:08:37;;;;;;;1.58;0.55;;;;;;;;;;5055366;28;20029;-83
2023/10/22 03:11:03;;;;;;;3.95;0.60;;;;;;;;;;5055177;28;20413;-82
2023/10/22 03:13:28;;;;;;;2.78;0.70;;;;;;;;;;5055031;28;20115;-83
2023/10/22 03:15:59;;;;;;;3.58;1.70;;;;;;;;;;5055225;28;20020;-83
2023/10/22 03:18:25;;;;;;;3.33;0.77;;;;;;;;;;5055022;28;20388;-84
2023/10/22 03:20:50;;;;;;;5.18;0.70;;;;;;;;;;5054934;28;20025;-83
2023/10/22 03:23:16;;;;;;;6.35;0.70;;;;;;;;;;5055227;28;20020;-83
2023/10/22 03:25:43;;;;;;;2.75;0.50;;;;;;;;;;5054927;28;20051;-82
2023/10/22 03:28:11;;;;;;;2.10;0.80;;;;;;;;;;5054748;28;20016;-83
2023/10/22 03:30:39;;;;;;;1.65;0.50;;;;;;;;;;5054794;28;20025;-82
2023/10/22 03:33:05;;;;;;;2.30;0.57;;;;;;;;;;5054459;28;20020;-82
2023/10/22 03:35:31;;;;;;;2.25;0.47;;;;;;;;;;5054741;28;20024;-83
2023/10/22 03:37:57;;;;;;;3.22;0.52;;;;;;;;;;5054345;28;20127;-82
2023/10/22 03:40:24;;;;;;;1.80;0.60;;;;;;;;;;5074962;28;20040;-82
2023/10/22 03:42:50;;;;;;;1.67;0.60;;;;;;;;;;5055362;28;20395;-82
2023/10/22 03:45:15;;;;;;;1.80;0.40;;;;;;;;;;5054551;28;20024;-82
2023/10/22 03:47:40;;;;;;;4.57;0.75;;;;;;;;;;5055025;28;20337;-83
2023/10/22 03:50:06;;;;;;;2.05;0.45;;;;;;;;;;5057102;28;20024;-82
2023/10/22 03:52:31;;;;;;;0.70;0.50;;;;;;;;;;5056518;28;20056;-83
2023/10/22 03:55:03;;;;;;;1.00;0.55;;;;;;;;;;5074897;28;20020;-82
2023/10/22 03:57:30;;;;;;;5.70;0.55;;;;;;;;;;5075963;28;20072;-82
2023/10/22 03:59:55;;;;;;;3.63;1.00;;;;;;;;;;5056641;28;20098;-83
2023/10/22 04:02:21;;;;;;;3.05;0.50;;;;;;;;;;5056950;28;20111;-84
2023/10/22 04:04:46;;;;;;;2.40;0.55;;;;;;;;;;5072494;28;20017;-82
2023/10/22 04:07:11;;;;;;;2.83;0.70;;;;;;;;;;5055981;28;20021;-82
2023/10/22 04:09:37;;;;;;;3.20;0.50;;;;;;;;;;5054827;28;20025;-82
2023/10/22 04:12:03;;;;;;;2.42;0.60;;;;;;;;;;5072733;28;20065;-82
2023/10/22 04:14:28;;;;;;;3.17;0.80;;;;;;;;;;5054663;28;20078;-83
2023/10/22 04:16:53;;;;;;;4.60;0.73;;;;;;;;;;5054342;28;20103;-82
2023/10/22 04:19:19;;;;;;;4.18;0.70;;;;;;;;;;5072489;28;20036;-82
2023/10/22 04:21:44;;;;;;;5.55;0.70;;;;;;;;;;5054201;28;20028;-82
2023/10/22 04:24:09;;;;;;;2.47;0.60;;;;;;;;;;5072411;28;20025;-81
2023/10/22 04:26:34;;;;;;;5.78;1.10;;;;;;;;;;5051751;28;20559;-82
2023/10/22 04:29:00;;;;;;;4.07;0.70;;;;;;;;;;5054201;28;20517;-83
2023/10/22 04:31:26;;;;;;;2.83;0.77;;;;;;;;;;5053853;28;20028;-83
2023/10/22 04:33:51;;;;;;;1.90;0.60;;;;;;;;;;5053353;28;20024;-82
2023/10/22 04:36:19;;;;;;;3.97;0.80;;;;;;;;;;5053925;28;20032;-82
2023/10/22 04:38:44;;;;;;;3.30;0.70;;;;;;;;;;5053975;28;20020;-83
2023/10/22 04:41:10;;;;;;;2.92;0.55;;;;;;;;;;5072210;28;20075;-83
2023/10/22 04:43:35;;;;;;;2.90;0.40;;;;;;;;;;5053374;28;20097;-83
2023/10/22 04:46:01;;;;;;;2.63;0.65;;;;;;;;;;5053977;28;20029;-82
2023/10/22 04:48:26;;;;;;;3.95;0.73;;;;;;;;;;5055113;28;20052;-83
2023/10/22 04:50:53;;;;;;;4.40;0.73;;;;;;;;;;5075107;28;20020;-83
2023/10/22 04:53:18;;;;;;;1.13;0.40;;;;;;;;;;5057914;28;20021;-82
2023/10/22 04:55:53;;;;;;;3.88;0.55;;;;;;;;;;5058956;28;20477;-82
2023/10/22 04:58:18;;;;;;;1.08;0.50;;;;;;;;;;5058100;28;20028;-82
2023/10/22 05:00:46;;;;;;;3.25;0.70;;;;;;;;;;5076422;28;20372;-83
2023/10/22 05:03:12;;;;;;;3.08;0.73;;;;;;;;;;5091143;28;20039;-83
2023/10/22 05:05:40;;;;;;;3.13;1.00;;;;;;;;;;5076039;28;20021;-82
2023/10/22 05:08:05;;;;;;;6.10;0.70;;;;;;;;;;5059292;28;20056;-82
2023/10/22 05:10:40;;;;;;;4.75;0.82;;;;;;;;;;5061177;28;20023;-83
2023/10/22 05:13:08;;;;;;;4.05;0.60;;;;;;;;;;5093449;28;20457;-82
2023/10/22 05:15:33;;;;;;;3.28;0.80;;;;;;;;;;5058090;28;20021;-83
2023/10/22 05:17:59;;;;;;;2.67;0.52;;;;;;;;;;5075366;28;20069;-82
2023/10/22 05:20:28;;;;;;;3.10;0.55;;;;;;;;;;5057568;28;20161;-82
2023/10/22 05:22:54;;;;;;;3.95;0.70;;;;;;;;;;5057507;28;20030;-82
2023/10/22 05:25:20;;;;;;;2.10;0.63;;;;;;;;;;5075325;28;20375;-83
2023/10/22 05:27:45;;;;;;;3.67;0.77;;;;;;;;;;5056904;28;20460;-83
2023/10/22 05:30:11;;;;;;;2.08;0.90;;;;;;;;;;5057213;28;20534;-83
2023/10/22 05:32:36;;;;;;;1.13;0.60;;;;;;;;;;5057254;28;20063;-83
2023/10/22 05:35:03;;;;;;;2.25;0.80;;;;;;;;;;5056983;28;20019;-82
2023/10/22 05:37:28;;;;;;;3.20;0.80;;;;;;;;;;5057109;28;20383;-83
2023/10/22 05:39:55;;;;;;;3.35;0.82;;;;;;;;;;5074953;28;20016;-83
2023/10/22 05:42:21;;;;;;;2.10;0.70;;;;;;;;;;5074908;28;20075;-82
2023/10/22 05:44:46;;;;;;;2.17;0.60;;;;;;;;;;5074935;28;20025;-83
2023/10/22 05:47:11;;;;;;;3.15;0.70;;;;;;;;;;5056858;28;20378;-82
2023/10/22 05:49:37;;;;;;;3.50;1.20;;;;;;;;;;5056738;28;20051;-83
2023/10/22 05:52:08;;;;;;;4.43;0.80;;;;;;;;;;5056702;28;20488;-83
2023/10/22 05:54:34;;;;;;;2.53;0.80;;;;;;;;;;5090264;28;20464;-82
2023/10/22 05:57:00;;;;;;;2.25;1.00;;;;;;;;;;5075693;28;20016;-83
2023/10/22 05:59:25;;;;;;;4.20;0.95;;;;;;;;;;5075207;28;20181;-82
2023/10/22 06:01:51;;;;;;;4.40;1.08;;;;;;;;;;5089352;28;20077;-83
2023/10/22 06:04:19;;;;;;;4.53;0.80;;;;;;;;;;5057017;28;20020;-83
2023/10/22 06:06:45;;;;;;;1.55;0.60;;;;;;;;;;5059257;28;20028;-83
2023/10/22 06:09:12;;;;;;;4.07;0.80;;;;;;;;;;5058976;28;20020;-83
2023/10/22 06:11:37;;;;;;;1.83;0.80;;;;;;;;;;5058403;28;20506;-83
2023/10/22 06:14:03;;;;;;;2.00;0.82;;;;;;;;;;5057956;28;20078;-83
2023/10/22 06:16:30;;;;;;;2.40;0.77;;;;;;;;;;5058842;28;20013;-83
2023/10/22 06:18:56;;;;;;;3.97;0.68;;;;;;;;;;5076529;28;20028;-83
2023/10/22 06:21:22;;;;;;;2.55;0.80;;;;;;;;;;5058585;28;20016;-83
2023/10/22 06:23:51;;;;;;;3.67;0.85;;;;;;;;;;5090027;28;20035;-82
2023/10/22 06:26:16;;;;;;;3.55;0.90;;;;;;;;;;5071818;28;20038;-82
2023/10/22 06:28:44;;;;;;;4.72;1.25;;;;;;;;;;5056147;28;20026;-82
2023/10/22 06:31:11;;;;;;;1.67;0.70;;;;;;;;;;5056157;28;20020;-82
2023/10/22 06:33:37;;;;;;;4.63;0.93;;;;;;;;;;5056139;28;20024;-83
2023/10/22 06:36:12;;;;;;;3.28;1.10;;;;;;;;;;5087581;28;20048;-83
2023/10/22 06:38:37;;;;;;;2.17;1.08;;;;;;;;;;5055855;28;20026;-82
2023/10/22 06:41:03;;;;;;;6.60;0.90;;;;;;;;;;5056178;28;20021;-83
2023/10/22 06:43:28;;;;;;;2.10;0.90;;;;;;;;;;5055539;28;20032;-83
2023/10/22 06:45:57;;;;;;;3.95;0.85;;;;;;;;;;5055382;28;20016;-83
2023/10/22 06:48:29;;;;;;;4.07;0.90;;;;;;;;;;5072907;28;20179;-82
2023/10/22 06:50:55;;;;;;;3.70;0.82;;;;;;;;;;5055735;28;20483;-84
2023/10/22 06:53:20;;;;;;;2.92;1.15;;;;;;;;;;5055599;28;20100;-82
2023/10/22 06:55:48;;;;;;;4.85;0.80;;;;;;;;;;5055397;28;20024;-83
2023/10/22 06:58:14;;;;;;;2.05;0.77;;;;;;;;;;5055443;28;20089;-82
2023/10/22 07:00:39;;;;;;;4.38;1.00;;;;;;;;;;5055435;28;20016;-82
2023/10/22 07:03:04;;;;;;;5.25;0.93;;;;;;;;;;5073054;28;20032;-82
2023/10/22 07:05:29;;;;;;;1.63;0.60;;;;;;;;;;5074050;28;20016;-83
2023/10/22 07:07:55;;;;;;;3.95;0.82;;;;;;;;;;5056590;28;20051;-83
2023/10/22 07:10:20;;;;;;;4.15;0.75;;;;;;;;;;5055754;28;20080;-83
2023/10/22 07:12:45;;;;;;;1.65;0.75;;;;;;;;;;5055048;28;20032;-82
2023/10/22 07:15:14;;;;;;;2.22;0.80;;;;;;;;;;5055985;28;20066;-82
2023/10/22 07:17:39;;;;;;;1.77;0.68;;;;;;;;;;5057538;28;20020;-82
2023/10/22 07:20:06;;;;;;;3.40;0.90;;;;;;;;;;5057271;28;20540;-82
2023/10/22 07:22:31;;;;;;;3.00;0.68;;;;;;;;;;5074380;28;20532;-82
2023/10/22 07:24:57;;;;;;;0.85;0.50;;;;;;;;;;5088979;28;20059;-82
2023/10/22 07:27:22;;;;;;;1.92;0.70;;;;;;;;;;5057665;28;20476;-83
2023/10/22 07:29:48;;;;;;;3.97;0.68;;;;;;;;;;5057971;28;20032;-83
2023/10/22 07:32:14;;;;;;;6.85;0.90;;;;;;;;;;5055623;28;20027;-83
2023/10/22 07:34:39;;;;;;;3.20;0.80;;;;;;;;;;5076757;28;20009;-82
2023/10/22 07:37:11;;;;;;;1.33;0.60;;;;;;;;;;5055767;28;20078;-83
2023/10/22 07:39:36;;;;;;;;;;;;;;;;;;5055527;28;20019;-83
2023/10/22 07:42:02;;;;;;;2.33;0.65;;;;;;;;;;5054878;28;19984;-82
2023/10/22 07:44:27;;;;;;;1.08;0.73;;;;;;;;;;5055085;28;20027;-83
2023/10/22 07:46:52;;;;;;;1.02;0.60;;;;;;;;;;5054530;28;20491;-83
2023/10/22 07:49:20;;;;;;;2.65;0.60;;;;;;;;;;5054765;28;20021;-83
2023/10/22 07:51:47;;;;;;;1.02;0.60;;;;;;;;;;5072457;28;20024;-83
2023/10/22 07:54:13;;;;;;;0.80;0.52;;;;;;;;;;5054497;28;20054;-83
2023/10/22 07:56:38;;;;;;;1.45;0.70;;;;;;;;;;5054752;28;20122;-82
2023/10/22 07:59:09;;;;;;;3.72;0.77;;;;;;;;;;5054281;28;20081;-83
2023/10/22 08:01:34;;;;;;;0.98;0.60;;;;;;;;;;5053992;28;20029;-83
2023/10/22 08:04:00;;;;;;;2.30;0.60;;;;;;;;;;5053408;28;20021;-83
2023/10/22 08:06:25;;;;;;;7.63;0.85;;;;;;;;;;5054044;28;20024;-84
2023/10/22 08:08:54;;;;;;;1.10;0.70;;;;;;;;;;5054193;28;20055;-83
2023/10/22 08:11:22;;;;;;;1.80;0.70;;;;;;;;;;5054268;28;20020;-83
2023/10/22 08:13:47;;;;;;;1.13;0.75;;;;;;;;;;5072366;28;20027;-82
2023/10/22 08:16:15;;;;;;;1.95;0.95;;;;;;;;;;5054020;28;20020;-82
2023/10/22 08:18:43;;;;;;;1.48;0.82;;;;;;;;;;5054920;28;20020;-83
2023/10/22 08:21:08;;;;;;;1.38;0.70;;;;;;;;;;5054631;28;20048;-83
2023/10/22 08:23:34;;;;;;;2.17;0.80;;;;;;;;;;5054622;28;20502;-83
2023/10/22 08:25:59;;;;;;;5.07;1.00;;;;;;;;;;5053168;28;20044;-82
2023/10/22 08:28:25;;;;;;;2.45;1.20;;;;;;;;;;5056732;28;20027;-83
2023/10/22 08:30:50;;;;;;;2.67;0.98;;;;;;;;;;5075333;28;20025;-82
2023/10/22 08:33:16;;;;;;;2.95;0.90;;;;;;;;;;5052791;28;20047;-83
2023/10/22 08:35:42;;;;;;;2.10;0.98;;;;;;;;;;5056793;28;20437;-83
2023/10/22 08:38:14;;;;;;;1.23;0.90;;;;;;;;;;5057416;28;20021;-82
2023/10/22 08:40:43;;;;;;;1.77;1.00;;;;;;;;;;5053932;28;20119;-82
2023/10/22 08:43:16;;;;;;;2.33;1.00;;;;;;;;;;5054530;28;20074;-81
2023/10/22 08:45:45;;;;;;;2.00;0.88;;;;;;;;;;5087669;28;20059;-83
2023/10/22 08:48:11;;;;;;;2.72;0.80;;;;;;;;;;5054766;28;20033;-83
2023/10/22 08:50:37;;;;;;;3.30;0.90;;;;;;;;;;5054824;28;20021;-83
2023/10/22 08:53:02;;;;;;;1.88;0.73;;;;;;;;;;5053982;28;20491;-83
2023/10/22 08:55:29;;;;;;;0.93;0.70;;;;;;;;;;5053473;28;20016;-82
2023/10/22 08:57:59;;;;;;;1.65;0.70;;;;;;;;;;5054181;28;20600;-83
2023/10/22 09:00:25;;;;;;;0.95;0.65;;;;;;;;;;5054391;28;20016;-83
2023/10/22 09:02:51;;;;;;;1.55;0.90;;;;;;;;;;5053890;28;20032;-83
2023/10/22 09:05:19;;;;;;;1.45;0.80;;;;;;;;;;5053668;28;20028;-82
2023/10/22 09:07:54;;;;;;;3.47;0.98;;;;;;;;;;5054069;28;20481;-82
2023/10/22 09:10:28;;;;;;;4.75;1.65;;;;;;;;;;5053398;28;20038;-82
2023/10/22 09:12:53;;;;;;;2.60;0.90;;;;;;;;;;5053128;28;20040;-82
2023/10/22 09:15:19;;;;;;;1.77;0.90;;;;;;;;;;5053222;28;20085;-83
2023/10/22 09:17:44;;;;;;;2.42;1.00;;;;;;;;;;5070963;28;20020;-83
2023/10/22 09:20:20;;;;;;;2.70;1.23;;;;;;;;;;5053296;28;20032;-83
2023/10/22 09:22:46;;;;;;;3.30;1.52;;;;;;;;;;5053327;28;20661;-82
2023/10/22 09:25:12;;;;;;;5.35;1.20;;;;;;;;;;5053332;28;20024;-83
2023/10/22 09:27:39;;;;;;;5.13;1.50;;;;;;;;;;5052905;28;20106;-83
2023/10/22 09:30:05;;;;;;;2.53;1.38;;;;;;;;;;5053519;28;20452;-83
2023/10/22 09:32:33;;;;;;;10.63;1.70;;;;;;;;;;5070979;28;20028;-83
2023/10/22 09:35:19;;;;;;;5.97;2.30;;;;;;;;;;5055322;28;20120;-82
2023/10/22 09:37:51;;;;;;;4.43;2.28;;;;;;;;;;5055916;28;20451;-83
2023/10/22 09:40:20;;;;;;;4.55;1.73;;;;;;;;;;5057703;28;20422;-83
2023/10/22 09:42:46;;;;;;;3.50;1.50;;;;;;;;;;5058094;28;20054;-83
2023/10/22 09:45:12;;;;;;;2.50;1.30;;;;;;;;;;5056827;28;20024;-82
2023/10/22 09:47:39;;;;;;;2.72;1.48;;;;;;;;;;5057609;28;20086;-82
2023/10/22 09:50:06;;;;;;;4.72;1.52;;;;;;;;;;5057162;28;20302;-83
2023/10/22 09:52:35;;;;;;;3.33;1.52;;;;;;;;;;5077055;28;20021;-83
2023/10/22 09:55:04;;;;;;;4.95;1.48;;;;;;;;;;5059086;28;20028;-83
2023/10/22 09:57:31;;;;;;;5.47;1.70;;;;;;;;;;5057984;28;20012;-82
2023/10/22 10:00:07;;;;;;;1.98;1.15;;;;;;;;;;5077286;28;20387;-83
2023/10/22 10:02:33;;;;;;;7.57;1.38;;;;;;;;;;5074766;28;20103;-83
2023/10/22 10:04:59;;;;;;;7.80;1.45;;;;;;;;;;5091888;28;20052;-82
2023/10/22 10:07:25;;;;;;;2.95;1.60;;;;;;;;;;5074956;28;20029;-83
2023/10/22 10:09:52;;;;;;;3.67;1.75;;;;;;;;;;5056588;28;20353;-83
2023/10/22 10:12:20;;;;;;;1.60;1.25;;;;;;;;;;5056755;28;20048;-82
2023/10/22 10:14:46;;;;;;;4.47;1.50;;;;;;;;;;5056547;28;20028;-82
2023/10/22 10:17:12;;;;;;;2.97;1.50;;;;;;;;;;5074528;28;20021;-83
2023/10/22 10:19:38;;;;;;;6.15;1.55;;;;;;;;;;5056471;28;20021;-83
2023/10/22 10:22:07;;;;;;;2.47;1.27;;;;;;;;;;5056290;28;20016;-83
2023/10/22 10:24:33;;;;;;;2.65;1.00;;;;;;;;;;5056271;28;20035;-83
2023/10/22 10:26:58;;;;;;;2.58;1.40;;;;;;;;;;5056646;28;20029;-83
2023/10/22 10:29:25;;;;;;;3.30;1.35;;;;;;;;;;5056113;28;20031;-83
2023/10/22 10:31:51;;;;;;;2.00;1.10;;;;;;;;;;5073764;28;20031;-83
2023/10/22 10:34:20;;;;;;;2.20;1.13;;;;;;;;;;5055935;28;20016;-83
2023/10/22 10:36:46;;;;;;;1.60;1.10;;;;;;;;;;5055642;28;20048;-82
2023/10/22 10:39:30;;;;;;;2.90;1.10;;;;;;;;;;5055970;28;20070;-83
2023/10/22 10:41:55;;;;;;;2.28;0.90;;;;;;;;;;5073884;28;20050;-83
2023/10/22 10:44:26;;;;;;;3.28;0.88;;;;;;;;;;5055506;28;20085;-83
2023/10/22 10:46:51;;;;;;;1.05;0.90;;;;;;;;;;5055429;28;20044;-83
2023/10/22 10:49:36;;;;;;;4.00;1.13;;;;;;;;;;5073753;28;20016;-83
2023/10/22 10:52:02;;;;;;;6.00;1.20;;;;;;;;;;5055694;28;20016;-83
2023/10/22 10:54:27;;;;;;;1.70;0.95;;;;;;;;;;5056050;28;20020;-83
2023/10/22 10:56:54;;;;;;;2.75;1.10;;;;;;;;;;5055812;28;20017;-83
2023/10/22 10:59:30;;;;;;;1.95;1.00;;;;;;;;;;5057335;28;20044;-83
2023/10/22 11:02:03;;;;;;;2.45;1.10;;;;;;;;;;5056335;28;20028;-82
2023/10/22 11:04:29;;;;;;;3.47;1.50;;;;;;;;;;5058108;28;20024;-83
2023/10/22 11:06:56;;;;;;;2.97;1.10;;;;;;;;;;5090662;28;20028;-83
2023/10/22 11:09:21;;;;;;;3.70;1.05;;;;;;;;;;5055939;28;20036;-84
2023/10/22 11:12:03;;;;;;;6.18;1.17;;;;;;;;;;5057258;28;20017;-83
2023/10/22 11:14:38;;;;;;;2.15;0.98;;;;;;;;;;5058713;28;20478;-83
2023/10/22 11:17:04;;;;;;;2.65;1.00;;;;;;;;;;5066224;28;20134;-83
2023/10/22 11:19:31;;;;;;;1.80;0.80;;;;;;;;;;5054957;28;20020;-83
2023/10/22 11:21:57;;;;;;;3.53;0.90;;;;;;;;;;5055185;28;20124;-83
2023/10/22 11:24:29;;;;;;;1.35;1.00;;;;;;;;;;5054911;28;20036;-83
2023/10/22 11:26:56;;;;;;;3.40;0.95;;;;;;;;;;5052397;28;20048;-83
2023/10/22 11:29:21;;;;;;;2.47;1.20;;;;;;;;;;5054705;28;20438;-83
2023/10/22 11:31:57;;;;;;;6.65;2.08;;;;;;;;;;5054758;28;20068;-83
2023/10/22 11:34:22;;;;;;;3.55;1.08;;;;;;;;;;5054482;28;20021;-83
2023/10/22 11:36:48;;;;;;;2.75;1.20;;;;;;;;;;5072866;28;20012;-83
2023/10/22 11:39:18;;;;;;;6.18;1.42;;;;;;;;;;5054950;28;20030;-83
2023/10/22 11:41:43;;;;;;;4.13;1.08;;;;;;;;;;5070705;28;20029;-83
2023/10/22 11:44:09;;;;;;;3.65;1.52;;;;;;;;;;5054973;28;20416;-83
2023/10/22 11:46:41;;;;;;;3.03;1.15;;;;;;;;;;5054407;28;20028;-83
2023/10/22 11:49:06;;;;;;;;;;;;;;;;;;5055134;28;20115;-83
2023/10/22 11:51:44;;;;;;;3.40;1.13;;;;;;;;;;5053697;28;19950;-84
2023/10/22 11:54:09;;;;;;;1.98;0.85;;;;;;;;;;5057674;28;20111;-83
2023/10/22 11:56:34;;;;;;;3.50;1.10;;;;;;;;;;5054359;28;20119;-83
2023/10/22 11:59:00;;;;;;;5.63;1.17;;;;;;;;;;5054028;28;20074;-83
2023/10/22 12:01:25;;;;;;;3.47;1.02;;;;;;;;;;5053867;28;20075;-83
2023/10/22 12:03:53;;;;;;;2.83;1.17;;;;;;;;;;5053814;28;20069;-83
2023/10/22 12:06:22;;;;;;;1.80;0.98;;;;;;;;;;5058296;28;20032;-83
2023/10/22 12:08:47;;;;;;;2.75;0.73;;;;;;;;;;5072405;28;20016;-83
2023/10/22 12:11:13;;;;;;;1.75;0.63;;;;;;;;;;5072910;28;20019;-83
2023/10/22 12:13:38;;;;;;;2.33;0.82;;;;;;;;;;5055688;28;20114;-82
2023/10/22 12:16:04;;;;;;;0.88;0.63;;;;;;;;;;5059179;28;20028;-83
2023/10/22 12:18:31;;;;;;;2.92;0.90;;;;;;;;;;5058848;28;20027;-84
2023/10/22 12:20:56;;;;;;;2.72;0.70;;;;;;;;;;5076803;28;20021;-85
2023/10/22 12:23:22;;;;;;;4.72;0.85;;;;;;;;;;5059798;28;20020;-86
2023/10/22 12:25:47;;;;;;;2.20;0.70;;;;;;;;;;5060378;28;20036;-85
2023/10/22 12:28:12;;;;;;;3.22;0.90;;;;;;;;;;5058323;28;20041;-86
2023/10/22 12:30:41;;;;;;;1.83;0.88;;;;;;;;;;5057493;28;20043;-85
2023/10/22 12:33:08;;;;;;;1.30;0.82;;;;;;;;;;5056373;28;20024;-86
2023/10/22 12:35:40;;;;;;;1.15;0.70;;;;;;;;;;5072406;28;20400;-86
2023/10/22 12:38:05;;;;;;;2.72;0.70;;;;;;;;;;5072558;28;20470;-85
2023/10/22 12:40:31;;;;;;;0.95;0.70;;;;;;;;;;5054372;28;20012;-86
2023/10/22 12:42:56;;;;;;;0.80;0.50;;;;;;;;;;5054663;28;20027;-86
2023/10/22 12:45:21;;;;;;;2.47;0.50;;;;;;;;;;5054191;28;20031;-84
2023/10/22 12:47:47;;;;;;;1.20;0.47;;;;;;;;;;5072121;28;20020;-85
2023/10/22 12:50:12;;;;;;;2.85;0.68;;;;;;;;;;5054900;28;20017;-86
2023/10/22 12:52:37;;;;;;;2.10;0.40;;;;;;;;;;5054814;28;20024;-85
2023/10/22 12:55:05;;;;;;;4.85;0.70;;;;;;;;;;5073021;28;20017;-86
2023/10/22 12:57:31;;;;;;;1.23;0.60;;;;;;;;;;5053828;28;20067;-86
2023/10/22 12:59:56;;;;;;;5.75;1.13;;;;;;;;;;5053922;28;20020;-86
2023/10/22 13:02:21;;;;;;;1.75;0.60;;;;;;;;;;5053683;28;20023;-86
2023/10/22 13:04:47;;;;;;;2.00;0.98;;;;;;;;;;5053583;28;20024;-86
2023/10/22 13:07:13;;;;;;;3.63;0.70;;;;;;;;;;5072186;28;20391;-86
2023/10/22 13:09:38;;;;;;;2.55;0.80;;;;;;;;;;5054332;28;20115;-85
2023/10/22 13:12:04;;;;;;;1.17;0.68;;;;;;;;;;5053784;28;20054;-85
2023/10/22 13:14:29;;;;;;;0.70;0.60;;;;;;;;;;5058117;28;20009;-86
2023/10/22 13:16:54;;;;;;;3.10;0.80;;;;;;;;;;5058050;28;20051;-85
2023/10/22 13:19:22;;;;;;;3.95;0.57;;;;;;;;;;5058160;28;20380;-84
2023/10/22 13:21:48;;;;;;;1.30;0.90;;;;;;;;;;5059213;28;20554;-85
2023/10/22 13:24:20;;;;;;;2.80;1.05;;;;;;;;;;5058531;28;20013;-85
2023/10/22 13:26:46;;;;;;;2.30;1.00;;;;;;;;;;5057795;28;20444;-85
2023/10/22 13:29:11;;;;;;;2.60;1.23;;;;;;;;;;5059874;28;20020;-85
2023/10/22 13:31:37;;;;;;;1.65;0.70;;;;;;;;;;5077252;28;20047;-85
2023/10/22 13:34:04;;;;;;;4.85;1.70;;;;;;;;;;5048959;28;20024;-86
2023/10/22 13:36:29;;;;;;;3.45;1.30;;;;;;;;;;5057019;28;20088;-85
2023/10/22 13:38:55;;;;;;;2.33;0.73;;;;;;;;;;5063143;28;20021;-86
2023/10/22 13:41:28;;;;;;;1.75;0.80;;;;;;;;;;5064256;28;20070;-85
2023/10/22 13:43:53;;;;;;;2.72;0.90;;;;;;;;;;5064039;28;20398;-86
2023/10/22 13:46:18;;;;;;;2.90;0.90;;;;;;;;;;5058653;28;20024;-86
2023/10/22 13:48:46;;;;;;;1.65;0.70;;;;;;;;;;5057495;28;20017;-86
2023/10/22 13:51:11;;;;;;;2.78;0.90;;;;;;;;;;5058494;28;20023;-85
2023/10/22 13:53:40;;;;;;;1.45;0.90;;;;;;;;;;5057538;28;20103;-85
2023/10/22 13:56:07;;;;;;;2.03;1.10;;;;;;;;;;5057309;28;20564;-86
2023/10/22 13:58:33;;;;;;;2.75;1.13;;;;;;;;;;5057636;28;20017;-85
2023/10/22 14:00:58;;;;;;;3.95;1.65;;;;;;;;;;5057435;28;20055;-85
2023/10/22 14:03:23;;;;;;;2.58;1.13;;;;;;;;;;5057353;28;20103;-86
2023/10/22 14:05:49;;;;;;;2.08;0.82;;;;;;;;;;5057475;28;20020;-85
2023/10/22 14:08:14;;;;;;;5.53;2.40;;;;;;;;;;5057015;28;20031;-85
2023/10/22 14:10:43;;;;;;;4.13;1.63;;;;;;;;;;5057024;28;21410;-86
2023/10/22 14:13:08;;;;;;;2.15;1.10;;;;;;;;;;5056408;28;20027;-86
2023/10/22 14:15:34;;;;;;;4.72;1.10;;;;;;;;;;5056979;28;20099;-86
2023/10/22 14:18:01;;;;;;;2.10;0.90;;;;;;;;;;5056170;28;20013;-85
2023/10/22 14:20:27;;;;;;;3.25;1.10;;;;;;;;;;5056552;28;20503;-85
2023/10/22 14:22:52;;;;;;;1.92;0.98;;;;;;;;;;5055276;28;20017;-86
2023/10/22 14:25:18;;;;;;;3.45;1.40;;;;;;;;;;5056781;28;20593;-86
2023/10/22 14:27:47;;;;;;;2.35;1.20;;;;;;;;;;5056732;28;20016;-85
2023/10/22 14:30:12;;;;;;;1.80;1.00;;;;;;;;;;5056399;28;20358;-86
2023/10/22 14:32:39;;;;;;;3.13;1.33;;;;;;;;;;5055953;28;20032;-86
2023/10/22 14:35:05;;;;;;;1.95;0.90;;;;;;;;;;5056971;28;20040;-85
2023/10/22 14:37:31;;;;;;;1.55;0.90;;;;;;;;;;5056614;28;20012;-86
2023/10/22 14:39:57;;;;;;;2.25;0.90;;;;;;;;;;5056817;28;20021;-85